createdAt,value
2022-10-07T00:00:09.027Z,8.63
2022-10-07T00:03:10.579Z,8.62
2022-10-07T00:06:17.250Z,8.62
2022-10-07T00:09:18.746Z,8.61
2022-10-07T00:12:21.035Z,8.62
2022-10-07T00:15:23.668Z,8.61
2022-10-07T00:18:25.185Z,8.61
2022-10-07T00:21:29.404Z,8.61
2022-10-07T00:24:30.977Z,8.60
2022-10-07T00:27:32.511Z,8.58
2022-10-07T00:30:34.129Z,8.57
2022-10-07T00:33:37.944Z,8.56
2022-10-07T00:36:39.673Z,8.55
2022-10-07T00:39:41.219Z,8.53
2022-10-07T00:42:42.899Z,8.52
2022-10-07T00:45:44.495Z,8.51
2022-10-07T00:48:46.960Z,8.50
2022-10-07T00:51:50.572Z,8.50
2022-10-07T00:54:55.028Z,8.49
2022-10-07T00:58:01.783Z,8.49
2022-10-07T01:01:03.955Z,8.47
2022-10-07T01:04:05.680Z,8.46
2022-10-07T01:07:07.323Z,8.44
2022-10-07T01:10:11.968Z,8.42
2022-10-07T01:13:32.145Z,8.40
2022-10-07T01:16:39.779Z,8.38
2022-10-07T01:19:53.237Z,8.39
2022-10-07T01:23:20.884Z,8.39
2022-10-07T01:26:31.388Z,8.39
2022-10-07T01:29:39.323Z,8.39
2022-10-07T01:32:47.899Z,8.39
2022-10-07T01:35:51.106Z,8.37
2022-10-07T01:39:08.956Z,8.37
2022-10-07T01:42:11.368Z,8.37
2022-10-07T01:45:17.072Z,8.36
2022-10-07T01:48:18.651Z,8.33
2022-10-07T01:51:28.340Z,8.33
2022-10-07T01:54:47.542Z,8.31
2022-10-07T01:58:10.142Z,8.30
2022-10-07T02:01:19.554Z,8.27
2022-10-07T02:04:35.579Z,8.26
2022-10-07T02:07:50.825Z,8.25
2022-10-07T02:11:01.766Z,8.25
2022-10-07T02:14:21.780Z,8.22
2022-10-07T02:17:27.279Z,8.19
2022-10-07T02:20:32.513Z,8.18
2022-10-07T02:23:37.623Z,8.17
2022-10-07T02:26:41.647Z,8.16
2022-10-07T02:29:46.001Z,8.16
2022-10-07T02:32:59.117Z,8.15
2022-10-07T02:36:05.809Z,8.11
2022-10-07T02:39:08.062Z,8.09
2022-10-07T02:42:27.961Z,8.06
2022-10-07T02:45:40.576Z,8.04
2022-10-07T02:48:52.259Z,8.02
2022-10-07T02:51:56.732Z,8.01
2022-10-07T02:55:08.423Z,7.98
2022-10-07T02:58:12.854Z,7.95
2022-10-07T03:01:23.317Z,7.95
2022-10-07T03:04:25.204Z,7.93
2022-10-07T03:07:27.253Z,7.93
2022-10-07T03:10:31.712Z,7.91
2022-10-07T03:13:35.276Z,7.90
2022-10-07T03:16:36.786Z,7.89
2022-10-07T03:19:38.319Z,7.88
2022-10-07T03:22:39.865Z,7.85
2022-10-07T03:25:41.390Z,7.83
2022-10-07T03:28:43.035Z,7.84
2022-10-07T03:31:44.619Z,7.82
2022-10-07T03:34:46.253Z,7.80
2022-10-07T03:37:48.218Z,7.79
2022-10-07T03:40:49.954Z,7.76
2022-10-07T03:43:51.612Z,7.75
2022-10-07T03:46:53.277Z,7.75
2022-10-07T03:49:55.306Z,7.74
2022-10-07T03:52:56.832Z,7.75
2022-10-07T03:55:58.502Z,7.75
2022-10-07T03:59:00.889Z,7.74
2022-10-07T04:02:02.442Z,7.74
2022-10-07T04:05:04.378Z,7.73
2022-10-07T04:08:05.941Z,7.71
2022-10-07T04:11:07.512Z,7.68
2022-10-07T04:14:09.371Z,7.69
2022-10-07T04:17:10.926Z,7.67
2022-10-07T04:20:13.499Z,7.67
2022-10-07T04:23:15.992Z,7.67
2022-10-07T04:26:17.569Z,7.66
2022-10-07T04:29:19.182Z,7.66
2022-10-07T04:32:23.147Z,7.64
2022-10-07T04:35:24.895Z,7.62
2022-10-07T04:38:28.421Z,7.63
2022-10-07T04:41:30.167Z,7.59
2022-10-07T04:44:31.682Z,7.59
2022-10-07T04:47:35.660Z,7.58
2022-10-07T04:50:40.519Z,7.56
2022-10-07T04:53:42.191Z,7.60
2022-10-07T04:56:43.743Z,7.62
2022-10-07T04:59:45.299Z,7.61
2022-10-07T05:02:50.432Z,7.60
2022-10-07T05:05:54.791Z,7.59
2022-10-07T05:08:56.735Z,7.57
2022-10-07T05:11:58.273Z,7.56
2022-10-07T05:15:01.668Z,7.54
2022-10-07T05:18:03.969Z,7.52
2022-10-07T05:21:07.377Z,7.50
2022-10-07T05:24:09.160Z,7.49
2022-10-07T05:27:10.753Z,7.48
2022-10-07T05:30:12.773Z,7.47
2022-10-07T05:33:14.321Z,7.46
2022-10-07T05:36:15.877Z,7.43
2022-10-07T05:39:17.373Z,7.43
2022-10-07T05:42:19.064Z,7.45
2022-10-07T05:45:20.667Z,7.53
2022-10-07T05:48:22.193Z,7.61
2022-10-07T05:51:25.165Z,7.68
2022-10-07T05:54:26.756Z,7.77
2022-10-07T05:57:28.428Z,7.83
2022-10-07T06:00:29.965Z,7.89
2022-10-07T06:03:31.526Z,7.95
2022-10-07T06:06:35.503Z,8.00
2022-10-07T06:09:55.629Z,8.12
2022-10-07T06:13:09.016Z,8.23
2022-10-07T06:16:10.574Z,8.27
2022-10-07T06:19:22.663Z,8.32
2022-10-07T06:22:24.432Z,8.35
2022-10-07T06:25:26.020Z,8.39
2022-10-07T06:28:32.980Z,8.42
2022-10-07T06:31:34.942Z,8.47
2022-10-07T06:34:36.873Z,8.53
2022-10-07T06:37:39.333Z,8.59
2022-10-07T06:40:40.944Z,8.64
2022-10-07T06:43:43.009Z,8.69
2022-10-07T06:46:44.593Z,8.73
2022-10-07T06:49:46.110Z,8.77
2022-10-07T06:52:47.692Z,8.80
2022-10-07T06:55:51.687Z,8.83
2022-10-07T06:58:53.298Z,8.84
2022-10-07T07:01:54.912Z,8.89
2022-10-07T07:04:58.086Z,8.95
2022-10-07T07:07:59.686Z,9.01
2022-10-07T07:11:06.195Z,9.10
2022-10-07T07:14:10.208Z,9.11
2022-10-07T07:17:12.065Z,9.13
2022-10-07T07:20:14.558Z,9.15
2022-10-07T07:23:16.223Z,9.19
2022-10-07T07:26:18.540Z,9.26
2022-10-07T07:29:20.547Z,9.33
2022-10-07T07:32:22.144Z,9.39
2022-10-07T07:35:25.518Z,9.43
2022-10-07T07:38:27.609Z,9.43
2022-10-07T07:41:31.924Z,9.48
2022-10-07T07:44:34.884Z,9.52
2022-10-07T07:47:36.718Z,9.55
2022-10-07T07:50:40.302Z,9.58
2022-10-07T07:53:41.878Z,9.57
2022-10-07T07:56:43.494Z,9.59
2022-10-07T07:59:44.992Z,9.64
2022-10-07T08:02:46.791Z,9.66
2022-10-07T08:05:48.885Z,9.70
2022-10-07T08:08:52.072Z,9.77
2022-10-07T08:11:53.606Z,9.82
2022-10-07T08:14:55.186Z,9.87
2022-10-07T08:17:56.737Z,9.91
2022-10-07T08:21:00.534Z,9.98
2022-10-07T08:24:04.612Z,10.05
2022-10-07T08:27:06.124Z,10.09
2022-10-07T08:30:08.789Z,10.15
2022-10-07T08:33:10.340Z,10.17
2022-10-07T08:36:14.778Z,10.20
2022-10-07T08:39:16.389Z,10.23
2022-10-07T08:42:38.924Z,10.29
2022-10-07T08:45:40.561Z,10.39
2022-10-07T08:48:45.883Z,10.45
2022-10-07T08:51:54.038Z,10.50
2022-10-07T08:54:55.767Z,10.53
2022-10-07T08:58:09.389Z,10.58
2022-10-07T09:01:32.678Z,10.62
2022-10-07T09:04:37.321Z,10.66
2022-10-07T09:07:51.917Z,10.71
2022-10-07T09:10:56.005Z,10.75
2022-10-07T09:14:13.848Z,10.80
2022-10-07T09:17:35.159Z,10.87
2022-10-07T09:20:43.664Z,10.95
2022-10-07T09:23:46.807Z,11.02
2022-10-07T09:26:48.499Z,11.11
2022-10-07T09:29:51.489Z,11.19
2022-10-07T09:32:54.721Z,11.27
2022-10-07T09:35:58.843Z,11.37
2022-10-07T09:39:16.129Z,11.46
2022-10-07T09:42:24.788Z,11.55
2022-10-07T09:45:33.569Z,11.67
2022-10-07T09:48:35.096Z,11.80
2022-10-07T09:51:36.706Z,11.96
2022-10-07T09:54:38.264Z,12.13
2022-10-07T09:57:40.516Z,12.32
2022-10-07T10:00:45.269Z,12.53
2022-10-07T10:03:46.976Z,12.69
2022-10-07T10:06:50.889Z,12.78
2022-10-07T10:09:55.799Z,12.90
2022-10-07T10:13:00.072Z,13.04
2022-10-07T10:16:03.894Z,13.22
2022-10-07T10:19:22.927Z,13.47
2022-10-07T10:22:30.150Z,13.69
2022-10-07T10:26:09.440Z,13.88
2022-10-07T10:29:39.300Z,14.04
2022-10-07T10:32:48.990Z,14.15
2022-10-07T10:35:56.253Z,14.28
2022-10-07T10:39:15.177Z,14.44
2022-10-07T10:42:22.895Z,14.56
2022-10-07T10:45:33.674Z,14.66
2022-10-07T10:48:53.498Z,14.81
2022-10-07T10:52:13.461Z,14.94
2022-10-07T10:55:23.465Z,15.03
2022-10-07T10:59:20.741Z,15.13
2022-10-07T11:02:36.439Z,15.26
2022-10-07T11:05:40.507Z,15.37
2022-10-07T11:08:42.048Z,15.50
2022-10-07T11:11:44.952Z,15.64
2022-10-07T11:14:55.725Z,15.75
2022-10-07T11:18:06.593Z,15.79
2022-10-07T11:21:22.207Z,15.75
2022-10-07T11:24:32.166Z,15.79
2022-10-07T11:27:35.371Z,15.85
2022-10-07T11:30:48.832Z,15.86
2022-10-07T11:34:01.264Z,15.82
2022-10-07T11:37:13.817Z,15.81
2022-10-07T11:40:16.551Z,15.87
2022-10-07T11:43:25.563Z,15.95
2022-10-07T11:46:39.517Z,16.02
2022-10-07T11:49:55.737Z,16.06
2022-10-07T11:53:06.477Z,16.08
2022-10-07T11:56:20.403Z,16.11
2022-10-07T11:59:45.980Z,16.16
2022-10-07T12:02:49.144Z,16.17
2022-10-07T12:05:50.940Z,16.18
2022-10-07T12:08:53.733Z,16.23
2022-10-07T12:11:56.708Z,16.25
2022-10-07T12:15:01.484Z,16.31
2022-10-07T12:18:05.993Z,16.35
2022-10-07T12:21:08.457Z,16.35
2022-10-07T12:24:15.029Z,16.33
2022-10-07T12:27:21.142Z,16.30
2022-10-07T12:30:39.608Z,16.34
2022-10-07T12:33:44.242Z,16.40
2022-10-07T12:36:45.792Z,16.43
2022-10-07T12:39:47.748Z,16.42
2022-10-07T12:42:57.996Z,16.40
2022-10-07T12:46:00.843Z,16.38
2022-10-07T12:49:14.724Z,16.40
2022-10-07T12:52:23.486Z,16.38
2022-10-07T12:55:38.162Z,16.35
2022-10-07T12:59:04.028Z,16.33
2022-10-07T13:02:42.806Z,16.33
2022-10-07T13:06:18.189Z,16.33
2022-10-07T13:09:25.449Z,16.40
2022-10-07T13:12:43.399Z,16.47
2022-10-07T13:15:48.157Z,16.48
2022-10-07T13:19:00.387Z,16.42
2022-10-07T13:22:12.680Z,16.38
2022-10-07T13:25:17.510Z,16.33
2022-10-07T13:28:27.017Z,16.28
2022-10-07T13:31:33.424Z,16.24
2022-10-07T13:34:35.473Z,16.17
2022-10-07T13:37:38.204Z,16.12
2022-10-07T13:40:39.933Z,16.10
2022-10-07T13:43:44.550Z,16.08
2022-10-07T13:46:55.529Z,16.04
2022-10-07T13:49:58.516Z,15.97
2022-10-07T13:53:01.108Z,15.90
2022-10-07T13:56:08.968Z,15.89
2022-10-07T13:59:18.513Z,15.86
2022-10-07T14:02:20.777Z,15.89
2022-10-07T14:05:29.323Z,15.92
2022-10-07T14:08:31.390Z,15.95
2022-10-07T14:11:32.982Z,15.98
2022-10-07T14:14:38.052Z,15.99
2022-10-07T14:17:44.181Z,15.98
2022-10-07T14:20:55.319Z,15.98
2022-10-07T14:23:56.898Z,15.94
2022-10-07T14:26:58.454Z,15.89
2022-10-07T14:30:01.468Z,15.84
2022-10-07T14:33:33.219Z,15.78
2022-10-07T14:36:36.159Z,15.74
2022-10-07T14:39:37.822Z,15.71
2022-10-07T14:42:39.468Z,15.66
2022-10-07T14:45:42.091Z,15.62
2022-10-07T14:48:44.124Z,15.61
2022-10-07T14:51:46.352Z,15.58
2022-10-07T14:54:49.115Z,15.54
2022-10-07T14:57:50.682Z,15.53
2022-10-07T15:00:52.640Z,15.53
2022-10-07T15:03:54.256Z,15.50
2022-10-07T15:06:55.920Z,15.49
2022-10-07T15:09:57.524Z,15.50
2022-10-07T15:12:59.523Z,15.49
2022-10-07T15:16:01.081Z,15.45
2022-10-07T15:19:03.127Z,15.44
2022-10-07T15:22:05.417Z,15.42
2022-10-07T15:25:08.862Z,15.41
2022-10-07T15:28:10.442Z,15.39
2022-10-07T15:31:12.104Z,15.36
2022-10-07T15:34:14.558Z,15.34
2022-10-07T15:37:17.559Z,15.32
2022-10-07T15:40:19.153Z,15.31
2022-10-07T15:43:20.803Z,15.28
2022-10-07T15:46:22.378Z,15.25
2022-10-07T15:49:23.972Z,15.23
2022-10-07T15:52:26.043Z,15.20
2022-10-07T15:55:27.577Z,15.18
2022-10-07T15:58:30.488Z,15.14
2022-10-07T16:01:32.822Z,15.11
2022-10-07T16:04:34.475Z,15.07
2022-10-07T16:07:36.195Z,15.04
2022-10-07T16:10:37.780Z,15.04
2022-10-07T16:13:44.166Z,15.04
2022-10-07T16:16:46.267Z,15.07
2022-10-07T16:19:48.139Z,15.09
2022-10-07T16:22:49.960Z,15.08
2022-10-07T16:25:51.481Z,15.07
2022-10-07T16:29:13.013Z,15.06
2022-10-07T16:32:14.595Z,15.01
2022-10-07T16:35:16.128Z,14.98
2022-10-07T16:38:18.251Z,14.96
2022-10-07T16:41:20.950Z,14.92
2022-10-07T16:44:23.672Z,14.88
2022-10-07T16:47:25.189Z,14.86
2022-10-07T16:50:26.753Z,14.81
2022-10-07T16:53:28.404Z,14.76
2022-10-07T16:56:33.036Z,14.72
2022-10-07T16:59:34.746Z,14.68
2022-10-07T17:02:36.286Z,14.64
2022-10-07T17:05:39.206Z,14.74
2022-10-07T17:08:47.460Z,14.68
2022-10-07T17:11:49.899Z,14.64
2022-10-07T17:14:51.490Z,14.61
2022-10-07T17:17:53.660Z,14.58
2022-10-07T17:20:55.677Z,14.54
2022-10-07T17:23:58.001Z,14.50
2022-10-07T17:26:59.553Z,14.47
2022-10-07T17:30:01.175Z,14.42
2022-10-07T17:33:02.795Z,14.36
2022-10-07T17:36:07.669Z,14.33
2022-10-07T17:39:09.539Z,14.27
2022-10-07T17:42:11.079Z,14.24
2022-10-07T17:45:12.612Z,14.23
2022-10-07T17:48:14.169Z,14.19
2022-10-07T17:51:17.619Z,14.15
2022-10-07T17:54:19.219Z,14.11
2022-10-07T17:57:21.426Z,14.07
2022-10-07T18:00:22.992Z,14.05
2022-10-07T18:03:26.622Z,14.04
2022-10-07T18:06:33.920Z,14.03
2022-10-07T18:09:35.508Z,14.02
2022-10-07T18:12:55.522Z,14.02
2022-10-07T18:16:01.878Z,14.02
2022-10-07T18:19:03.500Z,14.00
2022-10-07T18:22:05.460Z,13.96
2022-10-07T18:25:07.213Z,13.95
2022-10-07T18:28:08.826Z,13.95
2022-10-07T18:31:12.169Z,13.89
2022-10-07T18:34:14.066Z,13.85
2022-10-07T18:37:16.699Z,13.85
2022-10-07T18:40:18.403Z,13.88
2022-10-07T18:43:20.008Z,13.85
2022-10-07T18:46:23.116Z,13.80
2022-10-07T18:49:25.177Z,13.81
2022-10-07T18:52:26.697Z,13.81
2022-10-07T18:55:28.244Z,13.77
2022-10-07T18:58:34.525Z,13.71
2022-10-07T19:01:37.351Z,13.69
2022-10-07T19:04:40.575Z,13.67
2022-10-07T19:07:42.117Z,13.66
2022-10-07T19:10:43.715Z,13.65
2022-10-07T19:13:48.175Z,13.63
2022-10-07T19:16:49.866Z,13.61
2022-10-07T19:19:52.002Z,13.58
2022-10-07T19:22:53.508Z,13.53
2022-10-07T19:25:56.978Z,13.49
2022-10-07T19:28:58.519Z,13.45
2022-10-07T19:32:05.676Z,13.42
2022-10-07T19:35:09.462Z,13.41
2022-10-07T19:38:11.255Z,13.38
2022-10-07T19:41:16.960Z,13.34
2022-10-07T19:44:18.701Z,13.29
2022-10-07T19:47:20.272Z,13.24
2022-10-07T19:50:22.829Z,13.17
2022-10-07T19:53:24.357Z,13.11
2022-10-07T19:56:28.565Z,13.08
2022-10-07T19:59:30.116Z,13.06
2022-10-07T20:02:31.771Z,13.04
2022-10-07T20:05:33.358Z,12.98
2022-10-07T20:08:36.940Z,12.93
2022-10-07T20:11:38.606Z,12.90
2022-10-07T20:14:40.147Z,12.86
2022-10-07T20:17:42.228Z,12.82
2022-10-07T20:20:44.208Z,12.79
2022-10-07T20:23:48.212Z,12.78
2022-10-07T20:26:49.772Z,12.74
2022-10-07T20:30:02.227Z,12.73
2022-10-07T20:33:03.844Z,12.70
2022-10-07T20:36:06.722Z,12.67
2022-10-07T20:39:38.082Z,12.63
2022-10-07T20:42:44.655Z,12.60
2022-10-07T20:45:56.290Z,12.58
2022-10-07T20:48:58.148Z,12.54
2022-10-07T20:52:07.168Z,12.54
2022-10-07T20:55:09.712Z,12.52
2022-10-07T20:58:11.227Z,12.49
2022-10-07T21:01:13.498Z,12.46
2022-10-07T21:04:15.816Z,12.45
2022-10-07T21:07:19.172Z,12.41
2022-10-07T21:10:20.865Z,12.38
2022-10-07T21:13:22.374Z,12.36
2022-10-07T21:16:26.503Z,12.36
2022-10-07T21:19:28.160Z,12.35
2022-10-07T21:22:29.736Z,12.33
2022-10-07T21:25:32.641Z,12.27
2022-10-07T21:28:36.749Z,12.26
2022-10-07T21:31:38.354Z,12.26
2022-10-07T21:34:40.223Z,12.25
2022-10-07T21:37:42.420Z,12.19
2022-10-07T21:40:43.984Z,12.17
2022-10-07T21:43:50.218Z,12.16
2022-10-07T21:46:51.869Z,12.18
2022-10-07T21:49:53.397Z,12.19
2022-10-07T21:52:54.920Z,12.17
2022-10-07T21:55:56.746Z,12.13
2022-10-07T21:59:00.707Z,12.12
2022-10-07T22:02:02.650Z,12.10
2022-10-07T22:05:05.085Z,12.12
2022-10-07T22:08:33.991Z,12.11
2022-10-07T22:11:35.527Z,12.09
2022-10-07T22:14:37.562Z,12.08
2022-10-07T22:17:39.114Z,12.31
2022-10-07T22:20:40.901Z,12.27
2022-10-07T22:23:43.352Z,12.22
2022-10-07T22:26:47.520Z,12.15
2022-10-07T22:29:49.080Z,12.10
2022-10-07T22:32:50.627Z,12.06
2022-10-07T22:35:52.145Z,12.03
2022-10-07T22:38:55.640Z,11.98
2022-10-07T22:41:58.536Z,11.94
2022-10-07T22:45:00.089Z,11.89
2022-10-07T22:48:03.086Z,11.85
2022-10-07T22:51:08.156Z,11.82
2022-10-07T22:54:12.545Z,11.81
2022-10-07T22:57:14.092Z,11.79
2022-10-07T23:00:15.913Z,11.78
2022-10-07T23:03:17.637Z,11.76
2022-10-07T23:06:19.904Z,11.71
2022-10-07T23:09:21.566Z,11.70
2022-10-07T23:12:23.158Z,11.68
2022-10-07T23:15:24.732Z,11.69
2022-10-07T23:18:28.051Z,11.68
2022-10-07T23:21:34.189Z,11.69
2022-10-07T23:24:36.555Z,11.69
2022-10-07T23:27:38.886Z,11.66
2022-10-07T23:30:40.416Z,11.63
2022-10-07T23:33:42.000Z,11.58
2022-10-07T23:36:43.603Z,11.55
2022-10-07T23:39:45.121Z,11.53
2022-10-07T23:42:46.894Z,11.51
2022-10-07T23:45:50.135Z,11.49
2022-10-07T23:48:52.293Z,11.47
2022-10-07T23:51:53.810Z,11.43
2022-10-07T23:54:55.400Z,11.42
2022-10-07T23:57:56.889Z,11.40
